createdAt,value
2022-07-25T00:00:21.174Z,21.9
2022-07-25T00:05:23.651Z,21.9
2022-07-25T00:10:26.441Z,21.8
2022-07-25T00:15:28.720Z,21.8
2022-07-25T00:20:31.085Z,21.8
2022-07-25T00:25:33.507Z,21.8
2022-07-25T00:30:36.195Z,21.7
2022-07-25T00:35:38.511Z,21.6
2022-07-25T00:40:40.825Z,21.5
2022-07-25T00:45:43.279Z,21.4
2022-07-25T00:50:45.803Z,21.2
2022-07-25T00:55:48.790Z,21.2
2022-07-25T01:00:51.298Z,21.2
2022-07-25T01:05:55.940Z,21
2022-07-25T01:10:58.944Z,20.9
2022-07-25T01:16:01.981Z,20.8
2022-07-25T01:21:04.843Z,20.7
2022-07-25T01:26:08.140Z,20.6
2022-07-25T01:31:10.928Z,20.5
2022-07-25T01:36:13.844Z,20.4
2022-07-25T01:41:25.030Z,20.1
2022-07-25T01:46:18.204Z,20.1
2022-07-25T01:51:22.798Z,20
2022-07-25T01:56:33.096Z,19.9
2022-07-25T02:01:36.116Z,19.8
2022-07-25T02:06:38.942Z,19.8
2022-07-25T02:11:41.814Z,19.6
2022-07-25T02:16:44.605Z,19.7
2022-07-25T02:21:47.394Z,19.7
2022-07-25T02:26:50.270Z,19.7
2022-07-25T02:31:52.841Z,19.7
2022-07-25T02:36:55.328Z,19.6
2022-07-25T02:41:58.424Z,19.7
2022-07-25T02:47:01.117Z,19.7
2022-07-25T02:52:03.915Z,19.7
2022-07-25T02:57:06.917Z,19.6
2022-07-25T03:02:10.066Z,19.6
2022-07-25T03:07:12.415Z,19.6
2022-07-25T03:12:15.066Z,19.4
2022-07-25T03:17:17.632Z,19.5
2022-07-25T03:22:20.410Z,19.5
2022-07-25T03:27:23.259Z,19.4
2022-07-25T03:32:25.771Z,19.4
2022-07-25T03:37:28.004Z,19.5
2022-07-25T03:42:36.953Z,19.6
2022-07-25T03:52:40.815Z,19.9
2022-07-25T03:57:43.451Z,20
2022-07-25T04:02:46.218Z,19.9
2022-07-25T04:07:50.484Z,20.1
2022-07-25T04:12:53.419Z,20.5
2022-07-25T04:17:57.429Z,20.8
2022-07-25T04:22:59.673Z,20.7
2022-07-25T04:28:02.401Z,21.4
2022-07-25T04:33:04.648Z,21.4
2022-07-25T04:38:13.956Z,21.9
2022-07-25T04:43:16.292Z,21.9
2022-07-25T04:48:18.754Z,22.3
2022-07-25T04:53:21.024Z,22.6
2022-07-25T04:58:23.682Z,23
2022-07-25T05:03:25.956Z,23.2
2022-07-25T05:08:28.269Z,23.6
2022-07-25T05:13:30.950Z,23.9
2022-07-25T05:18:33.759Z,23.9
2022-07-25T05:23:36.082Z,23.9
2022-07-25T05:28:38.875Z,24.5
2022-07-25T05:33:41.580Z,24.5
2022-07-25T05:38:44.162Z,24.4
2022-07-25T05:43:46.890Z,24.7
2022-07-25T05:48:49.625Z,24.8
2022-07-25T05:53:51.994Z,24.7
2022-07-25T05:58:54.265Z,24.9
2022-07-25T06:03:56.607Z,25.5
2022-07-25T06:09:00.905Z,26
2022-07-25T06:13:59.239Z,26
2022-07-25T06:19:02.339Z,26.3
2022-07-25T06:24:05.750Z,26.7
2022-07-25T06:29:09.337Z,26.9
2022-07-25T06:34:12.648Z,26.9
2022-07-25T06:39:15.023Z,26.9
2022-07-25T06:44:18.216Z,27.6
2022-07-25T06:49:20.707Z,28
2022-07-25T06:54:23.043Z,27.9
2022-07-25T06:59:25.876Z,28.6
2022-07-25T07:04:28.296Z,28.6
2022-07-25T07:09:31.066Z,28.4
2022-07-25T07:14:33.916Z,29.1
2022-07-25T07:19:36.891Z,28.3
2022-07-25T07:24:49.339Z,28.6
2022-07-25T07:29:42.133Z,28.5
2022-07-25T07:34:44.502Z,28.4
2022-07-25T07:39:47.085Z,28.9
2022-07-25T07:44:49.481Z,29.3
2022-07-25T07:49:52.375Z,29.4
2022-07-25T07:55:00.741Z,29.8
2022-07-25T08:00:03.462Z,30
2022-07-25T08:05:05.996Z,29.9
2022-07-25T08:15:09.166Z,31.9
2022-07-25T08:20:39.884Z,32.2
2022-07-25T08:25:12.343Z,32.3
2022-07-25T08:30:15.313Z,31.9
2022-07-25T08:35:17.697Z,31.9
2022-07-25T08:40:20.484Z,32.4
2022-07-25T08:45:23.332Z,32.4
2022-07-25T08:50:25.988Z,33.1
2022-07-25T08:55:28.296Z,33
2022-07-25T09:00:30.937Z,33.6
2022-07-25T09:05:33.364Z,33.5
2022-07-25T09:10:39.496Z,33.8
2022-07-25T09:15:42.869Z,34.6
2022-07-25T09:20:45.300Z,34.6
2022-07-25T09:25:47.601Z,35.6
2022-07-25T09:30:50.205Z,37.3
2022-07-25T09:35:52.687Z,37.2
2022-07-25T09:40:55.255Z,35.8
2022-07-25T09:45:57.926Z,33.1
2022-07-25T09:51:00.426Z,33.1
2022-07-25T09:56:03.538Z,36.2
2022-07-25T10:01:06.400Z,39
2022-07-25T10:06:09.099Z,39
2022-07-25T10:11:11.701Z,39.7
2022-07-25T10:16:14.051Z,39.7
2022-07-25T10:21:29.375Z,40
2022-07-25T10:26:22.129Z,40.6
2022-07-25T10:31:24.917Z,41.3
2022-07-25T10:36:27.664Z,41.2
2022-07-25T10:41:30.280Z,39.2
2022-07-25T10:46:33.285Z,38.6
2022-07-25T10:51:43.353Z,38.9
2022-07-25T10:56:45.682Z,39
2022-07-25T11:01:48.370Z,37.5
2022-07-25T11:06:51.362Z,37.5
2022-07-25T11:11:54.062Z,35.4
2022-07-25T11:16:57.299Z,36.4
2022-07-25T11:22:00.455Z,34.6
2022-07-25T11:27:09.824Z,35.5
2022-07-25T11:32:05.781Z,37.7
2022-07-25T11:37:08.586Z,38
2022-07-25T11:42:10.877Z,38
2022-07-25T11:47:13.603Z,37.1
2022-07-25T11:52:16.321Z,37
2022-07-25T12:02:24.728Z,38.7
2022-07-25T12:07:28.583Z,38.9
2022-07-25T12:12:31.559Z,38.1
2022-07-25T12:17:34.158Z,38.1
2022-07-25T12:22:36.470Z,38
2022-07-25T12:27:39.228Z,36.8
2022-07-25T12:32:42.022Z,35.5
2022-07-25T12:37:44.922Z,35.9
2022-07-25T12:42:47.591Z,35.8
2022-07-25T12:47:50.562Z,34.9
2022-07-25T12:52:52.857Z,34.9
2022-07-25T12:57:55.123Z,35.4
2022-07-25T13:02:58.334Z,34.5
2022-07-25T13:08:00.754Z,34.4
2022-07-25T13:13:03.156Z,34.6
2022-07-25T13:18:05.633Z,34.8
2022-07-25T13:23:07.937Z,35.1
2022-07-25T13:28:13.942Z,34.5
2022-07-25T13:33:17.941Z,33
2022-07-25T13:38:20.524Z,32.7
2022-07-25T13:43:23.424Z,33.4
2022-07-25T13:48:34.175Z,33.8
2022-07-25T13:53:32.074Z,33.8
2022-07-25T13:58:34.758Z,34
2022-07-25T14:03:40.162Z,33.1
2022-07-25T14:08:42.862Z,33
2022-07-25T14:13:45.186Z,33
2022-07-25T14:18:48.299Z,33.5
2022-07-25T14:23:50.647Z,33.4
2022-07-25T14:28:53.086Z,33.5
2022-07-25T14:33:55.369Z,33.8
2022-07-25T14:38:58.163Z,33.1
2022-07-25T14:44:01.481Z,33.1
2022-07-25T14:49:04.555Z,33.3
2022-07-25T14:54:07.732Z,33.3
2022-07-25T14:59:11.446Z,32.7
2022-07-25T15:04:14.285Z,32.8
2022-07-25T15:09:16.741Z,32.8
2022-07-25T15:14:19.099Z,33.2
2022-07-25T15:19:21.896Z,32.7
2022-07-25T15:24:40.067Z,32.6
2022-07-25T15:29:29.638Z,32.7
2022-07-25T15:34:31.915Z,32.7
2022-07-25T15:39:34.599Z,32.4
2022-07-25T15:44:37.161Z,32.5
2022-07-25T15:49:39.857Z,32.5
2022-07-25T15:54:42.156Z,32.5
2022-07-25T15:59:44.474Z,32.7
2022-07-25T16:04:47.258Z,32.3
2022-07-25T16:09:50.173Z,32.2
2022-07-25T16:14:52.493Z,32.2
2022-07-25T16:19:55.173Z,32.1
2022-07-25T16:24:57.465Z,32
2022-07-25T16:29:59.746Z,32.1
2022-07-25T16:35:02.653Z,31.9
2022-07-25T16:40:05.858Z,32
2022-07-25T16:45:08.267Z,31.9
2022-07-25T16:50:10.942Z,31.8
2022-07-25T16:55:13.219Z,31.8
2022-07-25T17:00:15.534Z,31.6
2022-07-25T17:05:18.501Z,31.5
2022-07-25T17:10:22.225Z,31.3
2022-07-25T17:15:24.721Z,31.3
2022-07-25T17:20:27.366Z,31.1
2022-07-25T17:25:29.860Z,31
2022-07-25T17:30:32.597Z,30.8
2022-07-25T17:35:35.365Z,30.6
2022-07-25T17:40:37.739Z,30.6
2022-07-25T17:45:40.362Z,30.1
2022-07-25T17:50:42.965Z,29.9
2022-07-25T17:55:46.695Z,29.6
2022-07-25T18:00:48.974Z,29.6
2022-07-25T18:05:51.656Z,29.1
2022-07-25T18:10:54.046Z,29
2022-07-25T18:15:56.729Z,28.5
2022-07-25T18:20:59.546Z,28.2
2022-07-25T18:26:03.163Z,28.2
2022-07-25T18:31:05.849Z,27.7
2022-07-25T18:36:09.932Z,27.4
2022-07-25T18:41:31.675Z,27.4
2022-07-25T18:46:16.330Z,27.2
2022-07-25T18:51:19.966Z,27.3
2022-07-25T18:56:23.008Z,27.1
2022-07-25T19:01:26.084Z,27
2022-07-25T19:06:31.283Z,27.1
2022-07-25T19:11:38.930Z,27.2
2022-07-25T19:16:44.622Z,27.2
2022-07-25T19:21:47.498Z,27.3
2022-07-25T19:26:50.858Z,27.4
2022-07-25T19:31:53.408Z,27.4
2022-07-25T19:36:56.404Z,27.1
2022-07-25T19:41:59.140Z,26.7
2022-07-25T19:47:03.693Z,26.6
2022-07-25T19:52:02.922Z,26.5
2022-07-25T20:02:06.288Z,25.9
2022-07-25T20:07:10.603Z,25.6
2022-07-25T20:12:13.379Z,25.6
2022-07-25T20:17:16.150Z,25.5
2022-07-25T20:22:18.646Z,25.5
2022-07-25T20:27:21.970Z,25.8
2022-07-25T20:32:24.354Z,25.8
2022-07-25T20:37:27.333Z,25.8
2022-07-25T20:42:29.616Z,25.7
2022-07-25T20:47:33.080Z,25.7
2022-07-25T20:52:35.464Z,25.4
2022-07-25T20:57:37.811Z,25.5
2022-07-25T21:02:40.669Z,25.6
2022-07-25T21:07:43.631Z,25.6
2022-07-25T21:12:47.892Z,25.6
2022-07-25T21:17:50.196Z,25.6
2022-07-25T21:22:53.251Z,25.5
2022-07-25T21:27:55.519Z,25.5
2022-07-25T21:32:57.970Z,25.5
2022-07-25T21:38:00.694Z,25.5
2022-07-25T21:43:03.029Z,25.4
2022-07-25T21:48:05.327Z,25.5
2022-07-25T21:53:08.482Z,25.6
2022-07-25T21:58:11.048Z,25.5
2022-07-25T22:03:13.328Z,25.4
2022-07-25T22:08:15.651Z,25.4
2022-07-25T22:13:18.106Z,25.3
2022-07-25T22:18:20.867Z,25.3
2022-07-25T22:23:27.213Z,25.3
2022-07-25T22:28:31.980Z,25.3
2022-07-25T22:33:34.284Z,25.4
2022-07-25T22:38:37.178Z,25.3
2022-07-25T22:44:00.910Z,25.1
2022-07-25T22:48:43.586Z,25
2022-07-25T22:53:46.078Z,25
2022-07-25T22:58:51.079Z,25
2022-07-25T23:03:53.875Z,25
2022-07-25T23:08:56.621Z,24.8
2022-07-25T23:13:58.874Z,24.8
2022-07-25T23:19:01.576Z,24.7
2022-07-25T23:24:03.959Z,24.6
2022-07-25T23:29:07.864Z,24.6
2022-07-25T23:34:11.507Z,24.5
2022-07-25T23:39:17.514Z,24.5
2022-07-25T23:44:20.864Z,24.5
2022-07-25T23:49:28.198Z,24.5
2022-07-25T23:59:31.912Z,24.3
